sensor_id;sensor_type;location;lat;lon;timestamp;temperature;humidity
14517;DHT22;7344;50.864;4.362;2023-04-29T00:00:40;12.40;99.90
14517;DHT22;7344;50.864;4.362;2023-04-29T00:03:06;12.30;99.90
14517;DHT22;7344;50.864;4.362;2023-04-29T00:05:32;12.20;99.90
14517;DHT22;7344;50.864;4.362;2023-04-29T00:07:58;12.20;99.90
14517;DHT22;7344;50.864;4.362;2023-04-29T00:10:23;12.10;99.90
14517;DHT22;7344;50.864;4.362;2023-04-29T00:12:49;12.10;99.90
14517;DHT22;7344;50.864;4.362;2023-04-29T00:15:16;12.00;99.90
14517;DHT22;7344;50.864;4.362;2023-04-29T00:17:42;11.90;99.90
14517;DHT22;7344;50.864;4.362;2023-04-29T00:20:08;11.90;99.90
14517;DHT22;7344;50.864;4.362;2023-04-29T00:22:34;11.90;99.90
14517;DHT22;7344;50.864;4.362;2023-04-29T00:25:00;11.90;99.90
14517;DHT22;7344;50.864;4.362;2023-04-29T00:27:25;11.90;99.90
14517;DHT22;7344;50.864;4.362;2023-04-29T00:29:52;11.80;99.90
14517;DHT22;7344;50.864;4.362;2023-04-29T00:32:18;11.80;99.90
14517;DHT22;7344;50.864;4.362;2023-04-29T00:34:43;11.70;99.90
14517;DHT22;7344;50.864;4.362;2023-04-29T00:37:09;11.70;99.90
14517;DHT22;7344;50.864;4.362;2023-04-29T00:39:35;11.60;99.90
14517;DHT22;7344;50.864;4.362;2023-04-29T00:42:00;11.60;99.90
14517;DHT22;7344;50.864;4.362;2023-04-29T00:44:27;11.70;99.90
14517;DHT22;7344;50.864;4.362;2023-04-29T00:46:53;11.60;99.90
14517;DHT22;7344;50.864;4.362;2023-04-29T00:49:19;11.60;99.90
14517;DHT22;7344;50.864;4.362;2023-04-29T00:51:45;11.60;99.90
14517;DHT22;7344;50.864;4.362;2023-04-29T00:54:11;11.60;99.90
14517;DHT22;7344;50.864;4.362;2023-04-29T00:56:38;11.60;99.90
14517;DHT22;7344;50.864;4.362;2023-04-29T00:59:06;11.60;99.90
14517;DHT22;7344;50.864;4.362;2023-04-29T01:01:34;11.70;99.90
14517;DHT22;7344;50.864;4.362;2023-04-29T01:04:00;11.70;99.90
14517;DHT22;7344;50.864;4.362;2023-04-29T01:12:25;11.80;99.90
14517;DHT22;7344;50.864;4.362;2023-04-29T01:17:58;11.60;99.90
14517;DHT22;7344;50.864;4.362;2023-04-29T01:20:25;11.70;99.90
14517;DHT22;7344;50.864;4.362;2023-04-29T01:22:51;11.70;99.90
14517;DHT22;7344;50.864;4.362;2023-04-29T01:25:17;11.80;99.90
14517;DHT22;7344;50.864;4.362;2023-04-29T01:30:55;11.60;99.90
14517;DHT22;7344;50.864;4.362;2023-04-29T01:38:46;11.70;99.90
14517;DHT22;7344;50.864;4.362;2023-04-29T01:41:26;11.70;99.90
14517;DHT22;7344;50.864;4.362;2023-04-29T01:43:55;11.60;99.90
14517;DHT22;7344;50.864;4.362;2023-04-29T01:46:23;11.50;99.90
14517;DHT22;7344;50.864;4.362;2023-04-29T01:48:52;11.50;99.90
14517;DHT22;7344;50.864;4.362;2023-04-29T01:51:18;11.40;99.90
14517;DHT22;7344;50.864;4.362;2023-04-29T01:53:44;11.40;99.90
14517;DHT22;7344;50.864;4.362;2023-04-29T01:56:09;11.40;99.90
14517;DHT22;7344;50.864;4.362;2023-04-29T01:58:35;11.30;99.90
14517;DHT22;7344;50.864;4.362;2023-04-29T02:01:00;11.30;99.90
14517;DHT22;7344;50.864;4.362;2023-04-29T02:03:26;11.40;99.90
14517;DHT22;7344;50.864;4.362;2023-04-29T02:05:52;11.30;99.90
14517;DHT22;7344;50.864;4.362;2023-04-29T02:08:17;11.30;99.90
14517;DHT22;7344;50.864;4.362;2023-04-29T02:10:57;11.40;99.90
14517;DHT22;7344;50.864;4.362;2023-04-29T02:13:23;11.30;99.90
14517;DHT22;7344;50.864;4.362;2023-04-29T02:15:49;11.30;99.90
14517;DHT22;7344;50.864;4.362;2023-04-29T02:18:15;11.30;99.90
14517;DHT22;7344;50.864;4.362;2023-04-29T02:20:41;11.30;99.90
14517;DHT22;7344;50.864;4.362;2023-04-29T02:23:07;11.20;99.90
14517;DHT22;7344;50.864;4.362;2023-04-29T02:25:32;11.10;99.90
14517;DHT22;7344;50.864;4.362;2023-04-29T02:27:58;11.10;99.90
14517;DHT22;7344;50.864;4.362;2023-04-29T02:30:24;11.10;99.90
14517;DHT22;7344;50.864;4.362;2023-04-29T02:32:49;11.00;99.90
14517;DHT22;7344;50.864;4.362;2023-04-29T02:35:15;11.10;99.90
14517;DHT22;7344;50.864;4.362;2023-04-29T02:37:41;11.10;99.90
14517;DHT22;7344;50.864;4.362;2023-04-29T02:40:07;11.00;99.90
14517;DHT22;7344;50.864;4.362;2023-04-29T02:42:33;10.90;99.90
14517;DHT22;7344;50.864;4.362;2023-04-29T02:44:58;10.90;99.90
14517;DHT22;7344;50.864;4.362;2023-04-29T02:47:24;11.00;99.90
14517;DHT22;7344;50.864;4.362;2023-04-29T02:49:49;10.90;99.90
14517;DHT22;7344;50.864;4.362;2023-04-29T02:52:15;10.90;99.90
14517;DHT22;7344;50.864;4.362;2023-04-29T02:54:44;10.90;99.90
14517;DHT22;7344;50.864;4.362;2023-04-29T02:57:09;10.90;99.90
14517;DHT22;7344;50.864;4.362;2023-04-29T02:59:35;10.90;99.90
14517;DHT22;7344;50.864;4.362;2023-04-29T03:02:01;11.00;99.90
14517;DHT22;7344;50.864;4.362;2023-04-29T03:04:27;10.90;99.90
14517;DHT22;7344;50.864;4.362;2023-04-29T03:06:54;11.00;99.90
14517;DHT22;7344;50.864;4.362;2023-04-29T03:09:21;11.00;99.90
14517;DHT22;7344;50.864;4.362;2023-04-29T03:11:48;11.00;99.90
14517;DHT22;7344;50.864;4.362;2023-04-29T03:14:15;10.80;99.90
14517;DHT22;7344;50.864;4.362;2023-04-29T03:16:41;10.90;99.90
14517;DHT22;7344;50.864;4.362;2023-04-29T03:19:07;10.90;99.90
14517;DHT22;7344;50.864;4.362;2023-04-29T03:21:32;10.90;99.90
14517;DHT22;7344;50.864;4.362;2023-04-29T03:23:58;10.90;99.90
14517;DHT22;7344;50.864;4.362;2023-04-29T03:26:24;10.80;99.90
14517;DHT22;7344;50.864;4.362;2023-04-29T03:28:50;10.80;99.90
14517;DHT22;7344;50.864;4.362;2023-04-29T03:31:16;10.80;99.90
14517;DHT22;7344;50.864;4.362;2023-04-29T03:33:42;10.80;99.90
14517;DHT22;7344;50.864;4.362;2023-04-29T03:36:07;10.80;99.90
14517;DHT22;7344;50.864;4.362;2023-04-29T03:38:34;10.70;99.90
14517;DHT22;7344;50.864;4.362;2023-04-29T03:41:00;10.80;99.90
14517;DHT22;7344;50.864;4.362;2023-04-29T03:43:25;11.00;99.90
14517;DHT22;7344;50.864;4.362;2023-04-29T03:45:51;11.10;99.90
14517;DHT22;7344;50.864;4.362;2023-04-29T03:48:17;11.10;99.90
14517;DHT22;7344;50.864;4.362;2023-04-29T03:50:44;11.10;99.90
14517;DHT22;7344;50.864;4.362;2023-04-29T03:53:10;11.10;99.90
14517;DHT22;7344;50.864;4.362;2023-04-29T03:55:36;11.10;99.90
14517;DHT22;7344;50.864;4.362;2023-04-29T03:58:02;11.00;99.90
14517;DHT22;7344;50.864;4.362;2023-04-29T04:00:29;10.90;99.90
14517;DHT22;7344;50.864;4.362;2023-04-29T04:02:56;10.80;99.90
14517;DHT22;7344;50.864;4.362;2023-04-29T04:05:22;10.90;99.90
14517;DHT22;7344;50.864;4.362;2023-04-29T04:07:50;11.00;99.90
14517;DHT22;7344;50.864;4.362;2023-04-29T04:10:16;11.10;99.90
14517;DHT22;7344;50.864;4.362;2023-04-29T04:12:42;11.00;99.90
14517;DHT22;7344;50.864;4.362;2023-04-29T04:15:08;11.10;99.90
14517;DHT22;7344;50.864;4.362;2023-04-29T04:17:34;11.10;99.90
14517;DHT22;7344;50.864;4.362;2023-04-29T04:20:00;11.00;99.90
14517;DHT22;7344;50.864;4.362;2023-04-29T04:22:25;11.00;99.90
14517;DHT22;7344;50.864;4.362;2023-04-29T04:24:53;11.00;99.90
14517;DHT22;7344;50.864;4.362;2023-04-29T04:27:19;11.00;99.90
14517;DHT22;7344;50.864;4.362;2023-04-29T04:29:45;11.00;99.90
14517;DHT22;7344;50.864;4.362;2023-04-29T04:32:10;11.00;99.90
14517;DHT22;7344;50.864;4.362;2023-04-29T04:34:36;10.90;99.90
14517;DHT22;7344;50.864;4.362;2023-04-29T04:37:04;10.90;99.90
14517;DHT22;7344;50.864;4.362;2023-04-29T04:39:30;10.90;99.90
14517;DHT22;7344;50.864;4.362;2023-04-29T04:41:56;10.80;99.90
14517;DHT22;7344;50.864;4.362;2023-04-29T04:44:22;10.80;99.90
14517;DHT22;7344;50.864;4.362;2023-04-29T04:46:49;10.80;99.90
14517;DHT22;7344;50.864;4.362;2023-04-29T04:49:15;10.80;99.90
14517;DHT22;7344;50.864;4.362;2023-04-29T04:51:43;10.90;99.90
14517;DHT22;7344;50.864;4.362;2023-04-29T04:54:09;10.90;99.90
14517;DHT22;7344;50.864;4.362;2023-04-29T04:56:35;10.90;99.90
14517;DHT22;7344;50.864;4.362;2023-04-29T04:59:02;11.00;99.90
14517;DHT22;7344;50.864;4.362;2023-04-29T05:01:28;11.00;99.90
14517;DHT22;7344;50.864;4.362;2023-04-29T05:03:53;10.90;99.90
14517;DHT22;7344;50.864;4.362;2023-04-29T05:06:19;10.80;99.90
14517;DHT22;7344;50.864;4.362;2023-04-29T05:08:45;10.70;99.90
14517;DHT22;7344;50.864;4.362;2023-04-29T05:11:18;10.70;99.90
14517;DHT22;7344;50.864;4.362;2023-04-29T05:13:44;10.90;99.90
14517;DHT22;7344;50.864;4.362;2023-04-29T10:17:28;15.70;1.00
14517;DHT22;7344;50.864;4.362;2023-04-29T10:20:02;17.20;1.00
14517;DHT22;7344;50.864;4.362;2023-04-29T10:22:39;18.20;1.00
14517;DHT22;7344;50.864;4.362;2023-04-29T10:25:09;18.50;99.90
14517;DHT22;7344;50.864;4.362;2023-04-29T10:27:36;18.30;99.90
14517;DHT22;7344;50.864;4.362;2023-04-29T10:30:02;18.50;99.90
14517;DHT22;7344;50.864;4.362;2023-04-29T10:32:30;19.10;1.00
14517;DHT22;7344;50.864;4.362;2023-04-29T10:34:57;19.30;99.90
14517;DHT22;7344;50.864;4.362;2023-04-29T10:37:24;19.20;99.90
14517;DHT22;7344;50.864;4.362;2023-04-29T10:42:43;18.70;1.00
14517;DHT22;7344;50.864;4.362;2023-04-29T10:50:32;16.90;1.00
14517;DHT22;7344;50.864;4.362;2023-04-29T10:53:00;16.60;1.00
14517;DHT22;7344;50.864;4.362;2023-04-29T10:55:26;15.90;1.00
14517;DHT22;7344;50.864;4.362;2023-04-29T10:57:53;16.00;1.00
14517;DHT22;7344;50.864;4.362;2023-04-29T11:00:31;16.30;1.00
14517;DHT22;7344;50.864;4.362;2023-04-29T11:03:01;16.50;1.00
14517;DHT22;7344;50.864;4.362;2023-04-29T11:05:31;16.80;1.00
14517;DHT22;7344;50.864;4.362;2023-04-29T11:08:13;16.80;1.00
14517;DHT22;7344;50.864;4.362;2023-04-29T11:10:47;16.70;1.00
14517;DHT22;7344;50.864;4.362;2023-04-29T11:13:25;16.30;1.00
14517;DHT22;7344;50.864;4.362;2023-04-29T11:15:52;16.40;1.00
14517;DHT22;7344;50.864;4.362;2023-04-29T11:18:18;16.40;1.00
14517;DHT22;7344;50.864;4.362;2023-04-29T11:23:51;15.00;1.00
14517;DHT22;7344;50.864;4.362;2023-04-29T11:26:19;14.50;1.00
14517;DHT22;7344;50.864;4.362;2023-04-29T11:28:46;14.60;1.00
14517;DHT22;7344;50.864;4.362;2023-04-29T11:31:12;14.70;1.00
14517;DHT22;7344;50.864;4.362;2023-04-29T11:33:38;15.10;1.00
14517;DHT22;7344;50.864;4.362;2023-04-29T11:36:04;15.50;1.00
14517;DHT22;7344;50.864;4.362;2023-04-29T11:38:30;15.80;1.00
14517;DHT22;7344;50.864;4.362;2023-04-29T11:40:56;16.20;1.00
14517;DHT22;7344;50.864;4.362;2023-04-29T11:43:23;16.40;1.00
14517;DHT22;7344;50.864;4.362;2023-04-29T11:45:49;16.50;1.00
14517;DHT22;7344;50.864;4.362;2023-04-29T11:48:23;16.80;1.00
14517;DHT22;7344;50.864;4.362;2023-04-29T11:50:56;17.20;1.00
14517;DHT22;7344;50.864;4.362;2023-04-29T11:53:24;17.60;1.00
14517;DHT22;7344;50.864;4.362;2023-04-29T11:55:53;17.70;1.00
14517;DHT22;7344;50.864;4.362;2023-04-29T11:58:20;17.80;1.00
14517;DHT22;7344;50.864;4.362;2023-04-29T12:00:46;17.80;1.00
14517;DHT22;7344;50.864;4.362;2023-04-29T12:03:17;17.60;1.00
14517;DHT22;7344;50.864;4.362;2023-04-29T12:05:54;17.50;1.00
14517;DHT22;7344;50.864;4.362;2023-04-29T12:08:25;17.50;1.00
14517;DHT22;7344;50.864;4.362;2023-04-29T12:10:53;17.50;1.00
14517;DHT22;7344;50.864;4.362;2023-04-29T12:13:19;17.50;1.00
14517;DHT22;7344;50.864;4.362;2023-04-29T12:15:48;17.30;1.00
14517;DHT22;7344;50.864;4.362;2023-04-29T12:18:16;17.40;1.00
14517;DHT22;7344;50.864;4.362;2023-04-29T12:20:43;17.40;1.00
14517;DHT22;7344;50.864;4.362;2023-04-29T12:23:16;17.50;1.00
14517;DHT22;7344;50.864;4.362;2023-04-29T12:25:58;17.50;1.00
14517;DHT22;7344;50.864;4.362;2023-04-29T12:28:24;17.60;1.00
14517;DHT22;7344;50.864;4.362;2023-04-29T12:30:52;17.70;99.90
14517;DHT22;7344;50.864;4.362;2023-04-29T12:33:22;18.00;99.90
14517;DHT22;7344;50.864;4.362;2023-04-29T12:35:49;18.20;99.90
14517;DHT22;7344;50.864;4.362;2023-04-29T12:38:25;18.50;1.00
14517;DHT22;7344;50.864;4.362;2023-04-29T12:40:54;17.80;29.40
14517;DHT22;7344;50.864;4.362;2023-04-29T12:43:28;17.50;99.90
14517;DHT22;7344;50.864;4.362;2023-04-29T12:46:07;17.80;99.90
14517;DHT22;7344;50.864;4.362;2023-04-29T12:48:37;18.00;99.90
14517;DHT22;7344;50.864;4.362;2023-04-29T12:51:04;18.40;55.80
14517;DHT22;7344;50.864;4.362;2023-04-29T12:53:30;18.00;1.00
14517;DHT22;7344;50.864;4.362;2023-04-29T12:55:56;17.60;99.90
14517;DHT22;7344;50.864;4.362;2023-04-29T12:58:22;17.50;99.90
14517;DHT22;7344;50.864;4.362;2023-04-29T13:00:48;17.70;99.90
14517;DHT22;7344;50.864;4.362;2023-04-29T13:03:13;18.00;99.90
14517;DHT22;7344;50.864;4.362;2023-04-29T13:05:39;18.40;55.30
14517;DHT22;7344;50.864;4.362;2023-04-29T13:08:05;18.40;99.90
14517;DHT22;7344;50.864;4.362;2023-04-29T13:10:31;18.40;1.00
14517;DHT22;7344;50.864;4.362;2023-04-29T13:12:58;17.40;56.10
14517;DHT22;7344;50.864;4.362;2023-04-29T13:15:24;17.20;1.00
14517;DHT22;7344;50.864;4.362;2023-04-29T13:17:50;17.00;1.00
14517;DHT22;7344;50.864;4.362;2023-04-29T13:20:16;17.50;99.90
14517;DHT22;7344;50.864;4.362;2023-04-29T13:22:42;17.90;99.90
14517;DHT22;7344;50.864;4.362;2023-04-29T13:25:12;18.00;99.90
14517;DHT22;7344;50.864;4.362;2023-04-29T13:27:39;18.30;1.00
14517;DHT22;7344;50.864;4.362;2023-04-29T13:30:05;18.20;1.00
14517;DHT22;7344;50.864;4.362;2023-04-29T13:32:31;18.10;1.00
14517;DHT22;7344;50.864;4.362;2023-04-29T13:34:57;17.80;99.90
14517;DHT22;7344;50.864;4.362;2023-04-29T13:37:23;17.70;99.90
14517;DHT22;7344;50.864;4.362;2023-04-29T13:39:48;17.70;99.90
14517;DHT22;7344;50.864;4.362;2023-04-29T13:42:14;17.80;99.90
14517;DHT22;7344;50.864;4.362;2023-04-29T13:44:40;17.90;99.90
14517;DHT22;7344;50.864;4.362;2023-04-29T13:47:12;18.00;99.90
14517;DHT22;7344;50.864;4.362;2023-04-29T13:49:41;17.90;99.90
14517;DHT22;7344;50.864;4.362;2023-04-29T13:52:09;17.60;99.90
14517;DHT22;7344;50.864;4.362;2023-04-29T13:54:35;17.60;99.90
14517;DHT22;7344;50.864;4.362;2023-04-29T13:57:01;17.70;99.90
14517;DHT22;7344;50.864;4.362;2023-04-29T13:59:33;17.60;99.90
14517;DHT22;7344;50.864;4.362;2023-04-29T14:01:59;17.80;99.90
14517;DHT22;7344;50.864;4.362;2023-04-29T14:04:26;17.90;99.90
14517;DHT22;7344;50.864;4.362;2023-04-29T14:06:52;17.70;99.90
14517;DHT22;7344;50.864;4.362;2023-04-29T14:09:19;18.00;99.90
14517;DHT22;7344;50.864;4.362;2023-04-29T14:11:48;18.30;1.00
14517;DHT22;7344;50.864;4.362;2023-04-29T14:14:15;18.50;84.40
14517;DHT22;7344;50.864;4.362;2023-04-29T14:16:41;18.10;99.90
14517;DHT22;7344;50.864;4.362;2023-04-29T14:19:07;17.30;99.90
14517;DHT22;7344;50.864;4.362;2023-04-29T14:21:33;17.50;99.90
14517;DHT22;7344;50.864;4.362;2023-04-29T14:23:59;17.90;1.00
14517;DHT22;7344;50.864;4.362;2023-04-29T14:26:27;18.30;1.00
14517;DHT22;7344;50.864;4.362;2023-04-29T14:28:56;18.50;1.00
14517;DHT22;7344;50.864;4.362;2023-04-29T14:31:23;18.50;1.00
14517;DHT22;7344;50.864;4.362;2023-04-29T14:33:49;18.20;1.00
14517;DHT22;7344;50.864;4.362;2023-04-29T14:36:15;18.60;99.90
14517;DHT22;7344;50.864;4.362;2023-04-29T14:38:47;18.80;99.90
14517;DHT22;7344;50.864;4.362;2023-04-29T14:41:13;18.90;31.40
14517;DHT22;7344;50.864;4.362;2023-04-29T14:43:38;19.30;1.00
14517;DHT22;7344;50.864;4.362;2023-04-29T14:46:06;19.60;3.10
14517;DHT22;7344;50.864;4.362;2023-04-29T14:48:31;19.60;1.00
14517;DHT22;7344;50.864;4.362;2023-04-29T14:50:57;19.90;1.00
14517;DHT22;7344;50.864;4.362;2023-04-29T14:53:23;19.90;1.00
14517;DHT22;7344;50.864;4.362;2023-04-29T14:55:49;19.70;1.00
14517;DHT22;7344;50.864;4.362;2023-04-29T14:58:15;19.70;1.00
14517;DHT22;7344;50.864;4.362;2023-04-29T15:00:41;19.80;99.90
14517;DHT22;7344;50.864;4.362;2023-04-29T15:03:07;20.00;6.00
14517;DHT22;7344;50.864;4.362;2023-04-29T15:05:33;20.10;99.90
14517;DHT22;7344;50.864;4.362;2023-04-29T15:07:58;19.80;1.00
14517;DHT22;7344;50.864;4.362;2023-04-29T15:10:26;19.90;1.00
14517;DHT22;7344;50.864;4.362;2023-04-29T15:12:51;19.50;99.90
14517;DHT22;7344;50.864;4.362;2023-04-29T15:15:17;19.10;1.00
14517;DHT22;7344;50.864;4.362;2023-04-29T15:17:43;19.10;1.00
14517;DHT22;7344;50.864;4.362;2023-04-29T15:20:09;18.70;55.70
14517;DHT22;7344;50.864;4.362;2023-04-29T15:22:35;18.80;1.00
14517;DHT22;7344;50.864;4.362;2023-04-29T15:25:00;18.70;99.90
14517;DHT22;7344;50.864;4.362;2023-04-29T15:27:26;18.50;99.90
14517;DHT22;7344;50.864;4.362;2023-04-29T15:29:52;18.50;1.00
14517;DHT22;7344;50.864;4.362;2023-04-29T15:32:21;18.50;1.00
14517;DHT22;7344;50.864;4.362;2023-04-29T15:34:47;18.50;1.00
14517;DHT22;7344;50.864;4.362;2023-04-29T15:37:12;18.30;99.90
14517;DHT22;7344;50.864;4.362;2023-04-29T15:39:38;17.30;27.40
14517;DHT22;7344;50.864;4.362;2023-04-29T15:42:04;17.10;1.00
14517;DHT22;7344;50.864;4.362;2023-04-29T15:44:30;17.00;1.00
14517;DHT22;7344;50.864;4.362;2023-04-29T15:46:56;17.10;1.00
14517;DHT22;7344;50.864;4.362;2023-04-29T15:49:22;17.30;1.00
14517;DHT22;7344;50.864;4.362;2023-04-29T15:51:48;17.40;1.00
14517;DHT22;7344;50.864;4.362;2023-04-29T15:54:14;17.60;99.90
14517;DHT22;7344;50.864;4.362;2023-04-29T15:56:39;17.40;99.90
14517;DHT22;7344;50.864;4.362;2023-04-29T15:59:05;17.50;99.90
14517;DHT22;7344;50.864;4.362;2023-04-29T16:01:31;17.40;1.00
14517;DHT22;7344;50.864;4.362;2023-04-29T16:03:56;17.20;1.00
14517;DHT22;7344;50.864;4.362;2023-04-29T16:06:22;17.20;1.00
14517;DHT22;7344;50.864;4.362;2023-04-29T16:08:48;17.20;1.00
14517;DHT22;7344;50.864;4.362;2023-04-29T16:11:14;17.00;1.00
14517;DHT22;7344;50.864;4.362;2023-04-29T16:13:40;16.60;1.00
14517;DHT22;7344;50.864;4.362;2023-04-29T16:16:06;16.60;1.00
14517;DHT22;7344;50.864;4.362;2023-04-29T16:18:31;16.50;1.00
14517;DHT22;7344;50.864;4.362;2023-04-29T16:20:57;16.30;1.00
14517;DHT22;7344;50.864;4.362;2023-04-29T16:23:23;16.60;1.00
14517;DHT22;7344;50.864;4.362;2023-04-29T16:25:48;16.80;1.00
14517;DHT22;7344;50.864;4.362;2023-04-29T16:28:14;17.00;99.90
14517;DHT22;7344;50.864;4.362;2023-04-29T16:30:40;17.10;99.90
14517;DHT22;7344;50.864;4.362;2023-04-29T16:33:05;16.70;1.00
14517;DHT22;7344;50.864;4.362;2023-04-29T16:35:31;16.50;1.00
14517;DHT22;7344;50.864;4.362;2023-04-29T16:37:58;16.60;1.00
14517;DHT22;7344;50.864;4.362;2023-04-29T16:40:24;16.70;1.00
14517;DHT22;7344;50.864;4.362;2023-04-29T16:42:49;16.70;1.00
14517;DHT22;7344;50.864;4.362;2023-04-29T16:45:15;16.60;1.00
14517;DHT22;7344;50.864;4.362;2023-04-29T16:47:41;16.70;1.00
14517;DHT22;7344;50.864;4.362;2023-04-29T16:50:07;16.70;1.00
14517;DHT22;7344;50.864;4.362;2023-04-29T16:52:33;16.60;1.00
14517;DHT22;7344;50.864;4.362;2023-04-29T16:54:59;16.60;1.00
14517;DHT22;7344;50.864;4.362;2023-04-29T16:57:26;16.60;1.00
14517;DHT22;7344;50.864;4.362;2023-04-29T16:59:52;16.60;1.00
14517;DHT22;7344;50.864;4.362;2023-04-29T17:02:18;16.80;1.00
14517;DHT22;7344;50.864;4.362;2023-04-29T17:04:44;16.90;1.00
14517;DHT22;7344;50.864;4.362;2023-04-29T17:07:09;16.80;1.00
14517;DHT22;7344;50.864;4.362;2023-04-29T17:09:35;16.80;1.00
14517;DHT22;7344;50.864;4.362;2023-04-29T17:12:01;16.40;1.00
14517;DHT22;7344;50.864;4.362;2023-04-29T17:14:28;16.50;1.00
14517;DHT22;7344;50.864;4.362;2023-04-29T17:16:54;16.50;1.00
14517;DHT22;7344;50.864;4.362;2023-04-29T17:19:19;16.60;1.00
14517;DHT22;7344;50.864;4.362;2023-04-29T17:21:45;16.70;1.00
14517;DHT22;7344;50.864;4.362;2023-04-29T17:24:11;16.50;1.00
14517;DHT22;7344;50.864;4.362;2023-04-29T17:26:37;16.20;1.00
14517;DHT22;7344;50.864;4.362;2023-04-29T17:29:02;16.30;1.00
14517;DHT22;7344;50.864;4.362;2023-04-29T17:31:28;16.40;1.00
14517;DHT22;7344;50.864;4.362;2023-04-29T17:33:58;16.40;1.00
14517;DHT22;7344;50.864;4.362;2023-04-29T17:36:32;16.30;1.00
14517;DHT22;7344;50.864;4.362;2023-04-29T17:38:58;16.40;1.00
14517;DHT22;7344;50.864;4.362;2023-04-29T17:41:24;16.60;1.00
14517;DHT22;7344;50.864;4.362;2023-04-29T17:43:49;16.60;1.00
14517;DHT22;7344;50.864;4.362;2023-04-29T17:46:16;16.70;1.00
14517;DHT22;7344;50.864;4.362;2023-04-29T17:48:41;16.60;1.00
14517;DHT22;7344;50.864;4.362;2023-04-29T17:51:07;16.60;1.00
14517;DHT22;7344;50.864;4.362;2023-04-29T17:53:33;16.50;1.00
14517;DHT22;7344;50.864;4.362;2023-04-29T17:55:58;16.20;1.00
14517;DHT22;7344;50.864;4.362;2023-04-29T17:58:24;16.10;1.00
14517;DHT22;7344;50.864;4.362;2023-04-29T18:00:51;16.10;1.00
14517;DHT22;7344;50.864;4.362;2023-04-29T18:03:17;16.20;1.00
14517;DHT22;7344;50.864;4.362;2023-04-29T18:05:42;16.20;1.00
14517;DHT22;7344;50.864;4.362;2023-04-29T18:08:10;16.20;1.00
14517;DHT22;7344;50.864;4.362;2023-04-29T18:10:36;16.10;1.00
14517;DHT22;7344;50.864;4.362;2023-04-29T18:13:01;16.00;1.00
14517;DHT22;7344;50.864;4.362;2023-04-29T18:15:27;15.90;1.00
14517;DHT22;7344;50.864;4.362;2023-04-29T18:17:53;15.90;1.00
14517;DHT22;7344;50.864;4.362;2023-04-29T18:20:18;15.70;1.00
14517;DHT22;7344;50.864;4.362;2023-04-29T18:22:44;15.60;1.00
14517;DHT22;7344;50.864;4.362;2023-04-29T18:25:10;15.40;1.00
14517;DHT22;7344;50.864;4.362;2023-04-29T18:27:36;15.30;1.00
14517;DHT22;7344;50.864;4.362;2023-04-29T18:30:02;15.30;1.00
14517;DHT22;7344;50.864;4.362;2023-04-29T18:32:28;15.20;1.00
14517;DHT22;7344;50.864;4.362;2023-04-29T18:34:53;14.90;1.00
14517;DHT22;7344;50.864;4.362;2023-04-29T18:37:20;14.80;1.00
14517;DHT22;7344;50.864;4.362;2023-04-29T18:39:46;14.70;1.00
14517;DHT22;7344;50.864;4.362;2023-04-29T18:42:11;14.60;1.00
14517;DHT22;7344;50.864;4.362;2023-04-29T18:44:37;14.40;4.80
14517;DHT22;7344;50.864;4.362;2023-04-29T18:47:03;14.40;9.50
14517;DHT22;7344;50.864;4.362;2023-04-29T18:49:28;14.30;8.80
14517;DHT22;7344;50.864;4.362;2023-04-29T18:51:54;14.20;12.10
14517;DHT22;7344;50.864;4.362;2023-04-29T18:54:20;14.20;13.10
14517;DHT22;7344;50.864;4.362;2023-04-29T18:56:48;14.10;15.00
14517;DHT22;7344;50.864;4.362;2023-04-29T18:59:14;14.00;21.00
14517;DHT22;7344;50.864;4.362;2023-04-29T19:01:46;13.80;23.70
14517;DHT22;7344;50.864;4.362;2023-04-29T19:04:12;13.70;25.90
14517;DHT22;7344;50.864;4.362;2023-04-29T19:06:38;13.70;26.30
14517;DHT22;7344;50.864;4.362;2023-04-29T19:09:04;13.60;29.10
14517;DHT22;7344;50.864;4.362;2023-04-29T19:11:30;13.60;30.00
14517;DHT22;7344;50.864;4.362;2023-04-29T19:13:56;13.50;31.30
14517;DHT22;7344;50.864;4.362;2023-04-29T19:16:23;13.40;35.70
14517;DHT22;7344;50.864;4.362;2023-04-29T19:18:49;13.40;37.50
14517;DHT22;7344;50.864;4.362;2023-04-29T19:21:16;13.30;37.50
14517;DHT22;7344;50.864;4.362;2023-04-29T19:23:42;13.30;41.10
14517;DHT22;7344;50.864;4.362;2023-04-29T19:26:08;13.20;42.00
14517;DHT22;7344;50.864;4.362;2023-04-29T19:28:34;13.10;46.90
14517;DHT22;7344;50.864;4.362;2023-04-29T19:31:00;13.10;46.30
14517;DHT22;7344;50.864;4.362;2023-04-29T19:33:26;13.00;46.40
14517;DHT22;7344;50.864;4.362;2023-04-29T19:35:52;13.00;46.70
14517;DHT22;7344;50.864;4.362;2023-04-29T19:38:18;12.90;49.40
14517;DHT22;7344;50.864;4.362;2023-04-29T19:40:44;12.80;53.30
14517;DHT22;7344;50.864;4.362;2023-04-29T19:43:09;12.80;53.80
14517;DHT22;7344;50.864;4.362;2023-04-29T19:45:35;12.70;57.60
14517;DHT22;7344;50.864;4.362;2023-04-29T19:48:01;12.60;56.40
14517;DHT22;7344;50.864;4.362;2023-04-29T19:50:28;12.60;57.30
14517;DHT22;7344;50.864;4.362;2023-04-29T19:52:54;12.50;59.70
14517;DHT22;7344;50.864;4.362;2023-04-29T19:55:19;12.40;64.50
14517;DHT22;7344;50.864;4.362;2023-04-29T19:57:45;12.30;67.00
14517;DHT22;7344;50.864;4.362;2023-04-29T20:00:11;12.30;72.10
14517;DHT22;7344;50.864;4.362;2023-04-29T20:02:40;12.30;68.80
14517;DHT22;7344;50.864;4.362;2023-04-29T20:05:06;12.20;69.10
14517;DHT22;7344;50.864;4.362;2023-04-29T20:07:35;12.20;70.40
14517;DHT22;7344;50.864;4.362;2023-04-29T20:10:02;12.20;69.70
14517;DHT22;7344;50.864;4.362;2023-04-29T20:12:29;12.20;70.10
14517;DHT22;7344;50.864;4.362;2023-04-29T20:14:54;12.10;70.70
14517;DHT22;7344;50.864;4.362;2023-04-29T20:17:20;12.10;72.50
14517;DHT22;7344;50.864;4.362;2023-04-29T20:19:46;12.00;78.40
14517;DHT22;7344;50.864;4.362;2023-04-29T20:22:11;12.00;82.10
14517;DHT22;7344;50.864;4.362;2023-04-29T20:24:37;11.90;80.60
14517;DHT22;7344;50.864;4.362;2023-04-29T20:27:03;11.80;80.50
14517;DHT22;7344;50.864;4.362;2023-04-29T20:29:28;11.80;84.30
14517;DHT22;7344;50.864;4.362;2023-04-29T20:31:54;11.70;85.80
14517;DHT22;7344;50.864;4.362;2023-04-29T20:34:20;11.60;88.30
14517;DHT22;7344;50.864;4.362;2023-04-29T20:36:46;11.60;89.50
14517;DHT22;7344;50.864;4.362;2023-04-29T20:39:12;11.60;90.90
14517;DHT22;7344;50.864;4.362;2023-04-29T20:41:38;11.60;92.60
14517;DHT22;7344;50.864;4.362;2023-04-29T20:44:03;11.60;91.60
14517;DHT22;7344;50.864;4.362;2023-04-29T20:46:29;11.60;90.50
14517;DHT22;7344;50.864;4.362;2023-04-29T20:48:55;11.60;90.40
14517;DHT22;7344;50.864;4.362;2023-04-29T20:51:20;11.50;90.60
14517;DHT22;7344;50.864;4.362;2023-04-29T20:53:46;11.60;91.10
14517;DHT22;7344;50.864;4.362;2023-04-29T20:56:12;11.60;89.20
14517;DHT22;7344;50.864;4.362;2023-04-29T20:58:38;11.60;89.50
14517;DHT22;7344;50.864;4.362;2023-04-29T21:01:04;11.60;89.10
14517;DHT22;7344;50.864;4.362;2023-04-29T21:03:29;11.60;87.80
14517;DHT22;7344;50.864;4.362;2023-04-29T21:05:55;11.50;88.20
14517;DHT22;7344;50.864;4.362;2023-04-29T21:08:21;11.50;86.60
14517;DHT22;7344;50.864;4.362;2023-04-29T21:10:47;11.40;90.30
14517;DHT22;7344;50.864;4.362;2023-04-29T21:13:12;11.30;93.30
14517;DHT22;7344;50.864;4.362;2023-04-29T21:15:38;11.30;93.60
14517;DHT22;7344;50.864;4.362;2023-04-29T21:18:04;11.20;96.90